sensor_id;sensor_type;location;lat;lon;timestamp;temperature;humidity
25951;DHT22;13748;52.240;6.002;2023-02-11T00:01:36;7.30;99.90
25951;DHT22;13748;52.240;6.002;2023-02-11T00:04:04;7.20;99.90
25951;DHT22;13748;52.240;6.002;2023-02-11T00:06:32;7.30;99.90
25951;DHT22;13748;52.240;6.002;2023-02-11T00:09:00;7.30;99.90
25951;DHT22;13748;52.240;6.002;2023-02-11T00:11:27;7.30;99.90
25951;DHT22;13748;52.240;6.002;2023-02-11T00:14:00;7.20;99.90
25951;DHT22;13748;52.240;6.002;2023-02-11T00:16:28;7.30;99.90
25951;DHT22;13748;52.240;6.002;2023-02-11T00:18:57;7.30;99.90
25951;DHT22;13748;52.240;6.002;2023-02-11T00:21:25;7.30;99.90
25951;DHT22;13748;52.240;6.002;2023-02-11T00:23:52;7.30;99.90
25951;DHT22;13748;52.240;6.002;2023-02-11T00:26:22;7.30;99.90
25951;DHT22;13748;52.240;6.002;2023-02-11T00:28:50;7.30;99.90
25951;DHT22;13748;52.240;6.002;2023-02-11T00:31:19;7.30;99.90
25951;DHT22;13748;52.240;6.002;2023-02-11T00:33:46;7.30;99.90
25951;DHT22;13748;52.240;6.002;2023-02-11T00:36:19;7.20;99.90
25951;DHT22;13748;52.240;6.002;2023-02-11T00:38:48;7.30;99.90
25951;DHT22;13748;52.240;6.002;2023-02-11T00:41:16;7.30;99.90
25951;DHT22;13748;52.240;6.002;2023-02-11T00:43:43;7.30;99.90
25951;DHT22;13748;52.240;6.002;2023-02-11T00:46:10;7.30;99.90
25951;DHT22;13748;52.240;6.002;2023-02-11T00:48:37;7.40;99.90
25951;DHT22;13748;52.240;6.002;2023-02-11T00:51:04;7.40;99.90
25951;DHT22;13748;52.240;6.002;2023-02-11T00:53:31;7.30;99.90
25951;DHT22;13748;52.240;6.002;2023-02-11T00:55:58;7.40;99.90
25951;DHT22;13748;52.240;6.002;2023-02-11T00:58:27;7.30;99.90
25951;DHT22;13748;52.240;6.002;2023-02-11T01:00:54;7.30;99.90
25951;DHT22;13748;52.240;6.002;2023-02-11T01:03:21;7.30;99.90
25951;DHT22;13748;52.240;6.002;2023-02-11T01:05:48;7.30;99.90
25951;DHT22;13748;52.240;6.002;2023-02-11T01:08:15;7.30;99.90
25951;DHT22;13748;52.240;6.002;2023-02-11T01:10:42;7.40;99.90
25951;DHT22;13748;52.240;6.002;2023-02-11T01:13:09;7.40;99.90
25951;DHT22;13748;52.240;6.002;2023-02-11T01:15:36;7.30;99.90
25951;DHT22;13748;52.240;6.002;2023-02-11T01:18:04;7.30;99.90
25951;DHT22;13748;52.240;6.002;2023-02-11T01:20:31;7.30;99.90
25951;DHT22;13748;52.240;6.002;2023-02-11T01:22:58;7.30;99.90
25951;DHT22;13748;52.240;6.002;2023-02-11T01:25:25;7.30;99.90
25951;DHT22;13748;52.240;6.002;2023-02-11T01:27:51;7.30;99.90
25951;DHT22;13748;52.240;6.002;2023-02-11T01:30:18;7.30;99.90
25951;DHT22;13748;52.240;6.002;2023-02-11T01:32:45;7.30;99.90
25951;DHT22;13748;52.240;6.002;2023-02-11T01:35:11;7.30;99.90
25951;DHT22;13748;52.240;6.002;2023-02-11T01:37:38;7.30;99.90
25951;DHT22;13748;52.240;6.002;2023-02-11T01:40:13;7.30;99.90
25951;DHT22;13748;52.240;6.002;2023-02-11T01:42:40;7.30;99.90
25951;DHT22;13748;52.240;6.002;2023-02-11T01:48:21;7.30;99.90
25951;DHT22;13748;52.240;6.002;2023-02-11T01:50:52;7.30;99.90
25951;DHT22;13748;52.240;6.002;2023-02-11T01:53:20;7.30;99.90
25951;DHT22;13748;52.240;6.002;2023-02-11T01:56:07;7.30;99.90
25951;DHT22;13748;52.240;6.002;2023-02-11T01:58:54;7.30;99.90
25951;DHT22;13748;52.240;6.002;2023-02-11T02:01:25;7.30;99.90
25951;DHT22;13748;52.240;6.002;2023-02-11T02:03:56;7.30;99.90
25951;DHT22;13748;52.240;6.002;2023-02-11T02:06:36;7.30;99.90
25951;DHT22;13748;52.240;6.002;2023-02-11T02:09:10;7.30;99.90
25951;DHT22;13748;52.240;6.002;2023-02-11T02:11:38;7.30;99.90
25951;DHT22;13748;52.240;6.002;2023-02-11T02:14:05;7.30;99.90
25951;DHT22;13748;52.240;6.002;2023-02-11T02:16:36;7.30;99.90
25951;DHT22;13748;52.240;6.002;2023-02-11T02:27:49;7.20;99.90
25951;DHT22;13748;52.240;6.002;2023-02-11T02:36:29;7.20;99.90
25951;DHT22;13748;52.240;6.002;2023-02-11T02:39:05;7.20;99.90
25951;DHT22;13748;52.240;6.002;2023-02-11T02:41:34;7.10;99.90
25951;DHT22;13748;52.240;6.002;2023-02-11T02:44:02;7.20;99.90
25951;DHT22;13748;52.240;6.002;2023-02-11T02:46:32;7.20;99.90
25951;DHT22;13748;52.240;6.002;2023-02-11T02:48:59;7.10;99.90
25951;DHT22;13748;52.240;6.002;2023-02-11T02:57:03;7.10;99.90
25951;DHT22;13748;52.240;6.002;2023-02-11T03:05:42;7.10;99.90
25951;DHT22;13748;52.240;6.002;2023-02-11T03:08:22;7.10;99.90
25951;DHT22;13748;52.240;6.002;2023-02-11T03:10:51;7.10;99.90
25951;DHT22;13748;52.240;6.002;2023-02-11T03:13:21;7.10;99.90
25951;DHT22;13748;52.240;6.002;2023-02-11T03:15:51;7.10;99.90
25951;DHT22;13748;52.240;6.002;2023-02-11T03:18:23;7.10;99.90
25951;DHT22;13748;52.240;6.002;2023-02-11T03:20:52;7.10;99.90
25951;DHT22;13748;52.240;6.002;2023-02-11T03:23:24;7.10;99.90
25951;DHT22;13748;52.240;6.002;2023-02-11T03:25:58;7.10;99.90
25951;DHT22;13748;52.240;6.002;2023-02-11T03:28:32;7.00;99.90
25951;DHT22;13748;52.240;6.002;2023-02-11T03:34:06;7.00;99.90
25951;DHT22;13748;52.240;6.002;2023-02-11T03:36:38;7.10;99.90
25951;DHT22;13748;52.240;6.002;2023-02-11T03:39:09;7.10;99.90
25951;DHT22;13748;52.240;6.002;2023-02-11T03:41:37;7.10;99.90
25951;DHT22;13748;52.240;6.002;2023-02-11T03:44:06;7.10;99.90
25951;DHT22;13748;52.240;6.002;2023-02-11T03:46:37;7.20;99.90
25951;DHT22;13748;52.240;6.002;2023-02-11T03:49:10;7.20;99.90
25951;DHT22;13748;52.240;6.002;2023-02-11T03:51:37;7.20;99.90
25951;DHT22;13748;52.240;6.002;2023-02-11T03:54:08;7.10;99.90
25951;DHT22;13748;52.240;6.002;2023-02-11T03:56:40;7.10;99.90
25951;DHT22;13748;52.240;6.002;2023-02-11T03:59:09;7.20;99.90
25951;DHT22;13748;52.240;6.002;2023-02-11T04:01:35;7.20;99.90
25951;DHT22;13748;52.240;6.002;2023-02-11T04:04:02;7.20;99.90
25951;DHT22;13748;52.240;6.002;2023-02-11T04:06:29;7.20;99.90
25951;DHT22;13748;52.240;6.002;2023-02-11T04:08:56;7.20;99.90
25951;DHT22;13748;52.240;6.002;2023-02-11T04:11:22;7.20;99.90
25951;DHT22;13748;52.240;6.002;2023-02-11T04:13:49;7.20;99.90
25951;DHT22;13748;52.240;6.002;2023-02-11T04:16:16;7.20;99.90
25951;DHT22;13748;52.240;6.002;2023-02-11T04:18:42;7.20;99.90
25951;DHT22;13748;52.240;6.002;2023-02-11T04:21:09;7.30;99.90
25951;DHT22;13748;52.240;6.002;2023-02-11T04:23:36;7.20;99.90
25951;DHT22;13748;52.240;6.002;2023-02-11T04:26:03;7.30;99.90
25951;DHT22;13748;52.240;6.002;2023-02-11T04:28:30;7.20;99.90
25951;DHT22;13748;52.240;6.002;2023-02-11T04:30:57;7.20;99.90
25951;DHT22;13748;52.240;6.002;2023-02-11T04:33:24;7.30;99.90
25951;DHT22;13748;52.240;6.002;2023-02-11T04:35:50;7.20;99.90
25951;DHT22;13748;52.240;6.002;2023-02-11T04:38:17;7.20;99.90
25951;DHT22;13748;52.240;6.002;2023-02-11T04:40:44;7.20;99.90
25951;DHT22;13748;52.240;6.002;2023-02-11T04:43:11;7.20;99.90
25951;DHT22;13748;52.240;6.002;2023-02-11T04:45:38;7.20;99.90
25951;DHT22;13748;52.240;6.002;2023-02-11T04:48:04;7.20;99.90
25951;DHT22;13748;52.240;6.002;2023-02-11T04:50:31;7.20;99.90
25951;DHT22;13748;52.240;6.002;2023-02-11T04:52:58;7.30;99.90
25951;DHT22;13748;52.240;6.002;2023-02-11T04:55:24;7.30;99.90
25951;DHT22;13748;52.240;6.002;2023-02-11T04:57:58;7.30;99.90
25951;DHT22;13748;52.240;6.002;2023-02-11T05:00:25;7.30;99.90
25951;DHT22;13748;52.240;6.002;2023-02-11T05:02:52;7.30;99.90
25951;DHT22;13748;52.240;6.002;2023-02-11T05:05:18;7.30;99.90
25951;DHT22;13748;52.240;6.002;2023-02-11T05:07:45;7.30;99.90
25951;DHT22;13748;52.240;6.002;2023-02-11T05:10:12;7.30;99.90
25951;DHT22;13748;52.240;6.002;2023-02-11T05:12:38;7.30;99.90
25951;DHT22;13748;52.240;6.002;2023-02-11T05:15:05;7.20;99.90
25951;DHT22;13748;52.240;6.002;2023-02-11T05:17:32;7.30;99.90
25951;DHT22;13748;52.240;6.002;2023-02-11T05:19:59;7.30;99.90
25951;DHT22;13748;52.240;6.002;2023-02-11T05:22:26;7.30;99.90
25951;DHT22;13748;52.240;6.002;2023-02-11T05:24:53;7.30;99.90
25951;DHT22;13748;52.240;6.002;2023-02-11T05:27:19;7.30;99.90
25951;DHT22;13748;52.240;6.002;2023-02-11T05:29:46;7.30;99.90
25951;DHT22;13748;52.240;6.002;2023-02-11T05:32:13;7.30;99.90
25951;DHT22;13748;52.240;6.002;2023-02-11T05:34:39;7.30;99.90
25951;DHT22;13748;52.240;6.002;2023-02-11T05:37:06;7.30;99.90
25951;DHT22;13748;52.240;6.002;2023-02-11T05:39:33;7.40;99.90
25951;DHT22;13748;52.240;6.002;2023-02-11T05:42:00;7.30;99.90
25951;DHT22;13748;52.240;6.002;2023-02-11T05:44:27;7.30;99.90
25951;DHT22;13748;52.240;6.002;2023-02-11T05:46:53;7.40;99.90
25951;DHT22;13748;52.240;6.002;2023-02-11T05:49:20;7.30;99.90
25951;DHT22;13748;52.240;6.002;2023-02-11T05:51:47;7.40;99.90
25951;DHT22;13748;52.240;6.002;2023-02-11T05:54:14;7.40;99.90
25951;DHT22;13748;52.240;6.002;2023-02-11T05:56:40;7.40;99.90
25951;DHT22;13748;52.240;6.002;2023-02-11T05:59:12;7.40;99.90
25951;DHT22;13748;52.240;6.002;2023-02-11T06:01:39;7.40;99.90
25951;DHT22;13748;52.240;6.002;2023-02-11T06:04:06;7.40;99.90
25951;DHT22;13748;52.240;6.002;2023-02-11T06:06:33;7.40;99.90
25951;DHT22;13748;52.240;6.002;2023-02-11T06:08:59;7.40;99.90
25951;DHT22;13748;52.240;6.002;2023-02-11T06:11:26;7.40;99.90
25951;DHT22;13748;52.240;6.002;2023-02-11T06:13:53;7.40;99.90
25951;DHT22;13748;52.240;6.002;2023-02-11T06:16:19;7.40;99.90
25951;DHT22;13748;52.240;6.002;2023-02-11T06:18:46;7.40;99.90
25951;DHT22;13748;52.240;6.002;2023-02-11T06:21:13;7.40;99.90
25951;DHT22;13748;52.240;6.002;2023-02-11T06:23:40;7.40;99.90
25951;DHT22;13748;52.240;6.002;2023-02-11T06:26:08;7.40;99.90
25951;DHT22;13748;52.240;6.002;2023-02-11T06:28:41;7.40;99.90
25951;DHT22;13748;52.240;6.002;2023-02-11T06:31:07;7.40;99.90
25951;DHT22;13748;52.240;6.002;2023-02-11T06:33:35;7.40;99.90
25951;DHT22;13748;52.240;6.002;2023-02-11T06:36:02;7.40;99.90
25951;DHT22;13748;52.240;6.002;2023-02-11T06:38:30;7.40;99.90
25951;DHT22;13748;52.240;6.002;2023-02-11T06:40:56;7.40;99.90
25951;DHT22;13748;52.240;6.002;2023-02-11T06:43:23;7.50;99.90
25951;DHT22;13748;52.240;6.002;2023-02-11T06:45:53;7.50;99.90
25951;DHT22;13748;52.240;6.002;2023-02-11T06:48:21;7.50;99.90
25951;DHT22;13748;52.240;6.002;2023-02-11T06:50:48;7.50;99.90
25951;DHT22;13748;52.240;6.002;2023-02-11T06:53:15;7.40;99.90
25951;DHT22;13748;52.240;6.002;2023-02-11T06:55:41;7.50;99.90
25951;DHT22;13748;52.240;6.002;2023-02-11T06:58:08;7.50;99.90
25951;DHT22;13748;52.240;6.002;2023-02-11T07:00:35;7.50;99.90
25951;DHT22;13748;52.240;6.002;2023-02-11T07:03:02;7.50;99.90
25951;DHT22;13748;52.240;6.002;2023-02-11T07:05:29;7.50;99.90
25951;DHT22;13748;52.240;6.002;2023-02-11T07:07:56;7.50;99.90
25951;DHT22;13748;52.240;6.002;2023-02-11T07:10:23;7.60;99.90
25951;DHT22;13748;52.240;6.002;2023-02-11T07:12:49;7.60;99.90
25951;DHT22;13748;52.240;6.002;2023-02-11T07:15:16;7.60;99.90
25951;DHT22;13748;52.240;6.002;2023-02-11T07:17:43;7.50;99.90
25951;DHT22;13748;52.240;6.002;2023-02-11T07:20:10;7.60;99.90
25951;DHT22;13748;52.240;6.002;2023-02-11T07:22:37;7.60;99.90
25951;DHT22;13748;52.240;6.002;2023-02-11T07:25:04;7.60;99.90
25951;DHT22;13748;52.240;6.002;2023-02-11T07:27:31;7.70;99.90
25951;DHT22;13748;52.240;6.002;2023-02-11T07:29:58;7.60;99.90
25951;DHT22;13748;52.240;6.002;2023-02-11T07:32:25;7.60;99.90
25951;DHT22;13748;52.240;6.002;2023-02-11T07:34:51;7.60;99.90
25951;DHT22;13748;52.240;6.002;2023-02-11T07:37:18;7.70;99.90
25951;DHT22;13748;52.240;6.002;2023-02-11T07:39:45;7.60;99.90
25951;DHT22;13748;52.240;6.002;2023-02-11T07:42:12;7.70;99.90
25951;DHT22;13748;52.240;6.002;2023-02-11T07:44:38;7.60;99.90
25951;DHT22;13748;52.240;6.002;2023-02-11T07:47:05;7.70;99.90
25951;DHT22;13748;52.240;6.002;2023-02-11T07:49:32;7.70;99.90
25951;DHT22;13748;52.240;6.002;2023-02-11T07:51:58;7.70;99.90
25951;DHT22;13748;52.240;6.002;2023-02-11T07:54:25;7.80;99.90
25951;DHT22;13748;52.240;6.002;2023-02-11T07:56:52;7.80;99.90
25951;DHT22;13748;52.240;6.002;2023-02-11T07:59:18;7.90;99.90
25951;DHT22;13748;52.240;6.002;2023-02-11T08:01:45;7.90;99.90
25951;DHT22;13748;52.240;6.002;2023-02-11T08:04:12;7.90;99.90
25951;DHT22;13748;52.240;6.002;2023-02-11T08:06:41;7.90;99.90
25951;DHT22;13748;52.240;6.002;2023-02-11T08:09:12;7.90;99.90
25951;DHT22;13748;52.240;6.002;2023-02-11T08:11:39;8.00;99.90
25951;DHT22;13748;52.240;6.002;2023-02-11T08:14:07;8.00;99.90
25951;DHT22;13748;52.240;6.002;2023-02-11T08:16:35;8.10;99.90
25951;DHT22;13748;52.240;6.002;2023-02-11T08:19:05;8.10;99.90
25951;DHT22;13748;52.240;6.002;2023-02-11T08:21:32;8.10;99.90
25951;DHT22;13748;52.240;6.002;2023-02-11T08:24:01;8.20;99.90
25951;DHT22;13748;52.240;6.002;2023-02-11T08:26:30;8.20;99.90
25951;DHT22;13748;52.240;6.002;2023-02-11T08:28:58;8.30;99.90
25951;DHT22;13748;52.240;6.002;2023-02-11T08:31:27;8.30;99.90
25951;DHT22;13748;52.240;6.002;2023-02-11T08:33:55;8.30;99.90
25951;DHT22;13748;52.240;6.002;2023-02-11T08:36:36;8.30;99.90
25951;DHT22;13748;52.240;6.002;2023-02-11T08:39:06;8.30;99.90
25951;DHT22;13748;52.240;6.002;2023-02-11T08:41:50;8.20;99.90
25951;DHT22;13748;52.240;6.002;2023-02-11T08:44:18;8.30;99.90
25951;DHT22;13748;52.240;6.002;2023-02-11T08:46:45;8.30;99.90
25951;DHT22;13748;52.240;6.002;2023-02-11T08:49:13;8.30;99.90
25951;DHT22;13748;52.240;6.002;2023-02-11T08:51:40;8.40;99.90
25951;DHT22;13748;52.240;6.002;2023-02-11T08:54:07;8.40;99.90
25951;DHT22;13748;52.240;6.002;2023-02-11T08:56:36;8.50;99.90
25951;DHT22;13748;52.240;6.002;2023-02-11T08:59:03;8.50;99.90
25951;DHT22;13748;52.240;6.002;2023-02-11T09:01:31;8.60;99.90
25951;DHT22;13748;52.240;6.002;2023-02-11T09:03:58;8.70;99.90
25951;DHT22;13748;52.240;6.002;2023-02-11T09:06:27;8.70;99.90
25951;DHT22;13748;52.240;6.002;2023-02-11T09:08:55;8.80;99.90
25951;DHT22;13748;52.240;6.002;2023-02-11T09:11:32;8.80;99.90
25951;DHT22;13748;52.240;6.002;2023-02-11T09:13:59;8.90;99.90
25951;DHT22;13748;52.240;6.002;2023-02-11T09:16:31;8.90;99.90
25951;DHT22;13748;52.240;6.002;2023-02-11T09:19:00;9.00;99.90
25951;DHT22;13748;52.240;6.002;2023-02-11T09:21:27;9.10;99.90
25951;DHT22;13748;52.240;6.002;2023-02-11T09:23:55;9.10;99.90
25951;DHT22;13748;52.240;6.002;2023-02-11T09:26:26;9.10;99.90
25951;DHT22;13748;52.240;6.002;2023-02-11T09:28:53;9.20;99.90
25951;DHT22;13748;52.240;6.002;2023-02-11T09:31:23;9.20;99.90
25951;DHT22;13748;52.240;6.002;2023-02-11T09:33:54;9.30;99.90
25951;DHT22;13748;52.240;6.002;2023-02-11T09:36:27;9.30;99.90
25951;DHT22;13748;52.240;6.002;2023-02-11T09:38:54;9.40;99.90
25951;DHT22;13748;52.240;6.002;2023-02-11T09:43:56;9.50;99.90
25951;DHT22;13748;52.240;6.002;2023-02-11T09:46:25;9.50;99.90
25951;DHT22;13748;52.240;6.002;2023-02-11T09:48:54;9.60;99.90
25951;DHT22;13748;52.240;6.002;2023-02-11T09:54:04;9.60;99.90
25951;DHT22;13748;52.240;6.002;2023-02-11T09:56:33;9.60;99.90
25951;DHT22;13748;52.240;6.002;2023-02-11T09:58:59;9.60;99.90
25951;DHT22;13748;52.240;6.002;2023-02-11T10:01:38;9.70;99.90
25951;DHT22;13748;52.240;6.002;2023-02-11T10:10:34;9.80;99.90
25951;DHT22;13748;52.240;6.002;2023-02-11T10:13:39;9.90;99.90
25951;DHT22;13748;52.240;6.002;2023-02-11T10:19:34;10.10;99.90
25951;DHT22;13748;52.240;6.002;2023-02-11T10:22:36;10.20;99.90
25951;DHT22;13748;52.240;6.002;2023-02-11T10:25:28;10.20;99.90
25951;DHT22;13748;52.240;6.002;2023-02-11T10:28:01;10.20;99.90
25951;DHT22;13748;52.240;6.002;2023-02-11T10:30:51;10.30;99.90
25951;DHT22;13748;52.240;6.002;2023-02-11T10:33:30;10.30;99.90
25951;DHT22;13748;52.240;6.002;2023-02-11T10:35:58;10.40;99.90
25951;DHT22;13748;52.240;6.002;2023-02-11T10:38:25;10.50;99.90
25951;DHT22;13748;52.240;6.002;2023-02-11T10:40:53;10.50;99.90
25951;DHT22;13748;52.240;6.002;2023-02-11T10:43:23;10.50;99.90
25951;DHT22;13748;52.240;6.002;2023-02-11T10:45:55;10.60;99.90
25951;DHT22;13748;52.240;6.002;2023-02-11T10:51:11;10.50;99.90
25951;DHT22;13748;52.240;6.002;2023-02-11T10:53:40;10.60;99.90
25951;DHT22;13748;52.240;6.002;2023-02-11T10:56:13;10.60;99.90
25951;DHT22;13748;52.240;6.002;2023-02-11T10:58:57;10.70;99.90
25951;DHT22;13748;52.240;6.002;2023-02-11T11:01:41;10.70;99.90
25951;DHT22;13748;52.240;6.002;2023-02-11T11:07:19;10.80;99.90
25951;DHT22;13748;52.240;6.002;2023-02-11T11:10:01;10.80;99.90
25951;DHT22;13748;52.240;6.002;2023-02-11T11:17:37;10.90;99.90
25951;DHT22;13748;52.240;6.002;2023-02-11T11:23:17;10.90;99.90
25951;DHT22;13748;52.240;6.002;2023-02-11T11:26:18;10.90;99.90
25951;DHT22;13748;52.240;6.002;2023-02-11T11:28:56;10.90;99.90
25951;DHT22;13748;52.240;6.002;2023-02-11T11:31:36;10.90;99.90
25951;DHT22;13748;52.240;6.002;2023-02-11T11:34:32;10.90;99.90
25951;DHT22;13748;52.240;6.002;2023-02-11T11:37:31;10.90;99.90
25951;DHT22;13748;52.240;6.002;2023-02-11T11:40:20;10.90;99.90
25951;DHT22;13748;52.240;6.002;2023-02-11T11:45:31;11.20;99.90
25951;DHT22;13748;52.240;6.002;2023-02-11T11:48:34;11.30;99.90
25951;DHT22;13748;52.240;6.002;2023-02-11T11:51:05;11.40;99.90
25951;DHT22;13748;52.240;6.002;2023-02-11T11:53:45;11.40;99.90
25951;DHT22;13748;52.240;6.002;2023-02-11T11:58:42;11.40;99.90
25951;DHT22;13748;52.240;6.002;2023-02-11T12:04:30;11.40;99.90
25951;DHT22;13748;52.240;6.002;2023-02-11T12:10:24;11.30;99.90
25951;DHT22;13748;52.240;6.002;2023-02-11T12:15:40;11.20;99.90
25951;DHT22;13748;52.240;6.002;2023-02-11T12:26:51;11.40;99.90
25951;DHT22;13748;52.240;6.002;2023-02-11T12:29:26;11.40;99.90
25951;DHT22;13748;52.240;6.002;2023-02-11T12:35:05;11.40;99.90
25951;DHT22;13748;52.240;6.002;2023-02-11T12:40:21;11.40;99.90
25951;DHT22;13748;52.240;6.002;2023-02-11T12:46:13;11.50;99.90
25951;DHT22;13748;52.240;6.002;2023-02-11T12:54:33;11.70;99.90
25951;DHT22;13748;52.240;6.002;2023-02-11T12:57:28;11.80;99.90
25951;DHT22;13748;52.240;6.002;2023-02-11T13:00:24;11.80;99.90
25951;DHT22;13748;52.240;6.002;2023-02-11T13:03:23;11.90;99.90
25951;DHT22;13748;52.240;6.002;2023-02-11T13:05:53;11.90;99.90
25951;DHT22;13748;52.240;6.002;2023-02-11T13:08:45;12.00;99.90
25951;DHT22;13748;52.240;6.002;2023-02-11T13:11:20;12.00;99.90
25951;DHT22;13748;52.240;6.002;2023-02-11T13:14:03;12.10;99.90
25951;DHT22;13748;52.240;6.002;2023-02-11T13:16:44;12.20;99.90
25951;DHT22;13748;52.240;6.002;2023-02-11T13:35:34;12.40;99.90
25951;DHT22;13748;52.240;6.002;2023-02-11T13:38:03;12.30;99.90
25951;DHT22;13748;52.240;6.002;2023-02-11T13:40:34;12.40;99.90
25951;DHT22;13748;52.240;6.002;2023-02-11T13:43:04;12.50;99.90
25951;DHT22;13748;52.240;6.002;2023-02-11T13:45:43;12.60;99.90
25951;DHT22;13748;52.240;6.002;2023-02-11T13:48:28;12.60;99.90
25951;DHT22;13748;52.240;6.002;2023-02-11T13:51:05;12.70;99.90
25951;DHT22;13748;52.240;6.002;2023-02-11T13:53:53;12.80;99.90
25951;DHT22;13748;52.240;6.002;2023-02-11T13:56:36;12.70;99.90
25951;DHT22;13748;52.240;6.002;2023-02-11T13:59:51;12.60;99.90
25951;DHT22;13748;52.240;6.002;2023-02-11T14:11:03;12.20;99.90
25951;DHT22;13748;52.240;6.002;2023-02-11T14:16:16;11.90;99.90
25951;DHT22;13748;52.240;6.002;2023-02-11T14:19:03;11.80;99.90
25951;DHT22;13748;52.240;6.002;2023-02-11T14:21:37;11.70;99.90
25951;DHT22;13748;52.240;6.002;2023-02-11T14:26:55;11.50;99.90
25951;DHT22;13748;52.240;6.002;2023-02-11T14:32:00;11.30;99.90
25951;DHT22;13748;52.240;6.002;2023-02-11T14:34:50;11.30;99.90
25951;DHT22;13748;52.240;6.002;2023-02-11T14:37:42;11.30;99.90
25951;DHT22;13748;52.240;6.002;2023-02-11T14:40:43;11.40;99.90
25951;DHT22;13748;52.240;6.002;2023-02-11T14:43:16;11.40;99.90
25951;DHT22;13748;52.240;6.002;2023-02-11T14:45:54;11.50;99.90
25951;DHT22;13748;52.240;6.002;2023-02-11T14:48:27;11.50;99.90
25951;DHT22;13748;52.240;6.002;2023-02-11T14:51:17;11.50;99.90
25951;DHT22;13748;52.240;6.002;2023-02-11T14:54:21;11.60;99.90
25951;DHT22;13748;52.240;6.002;2023-02-11T14:59:37;11.70;99.90
25951;DHT22;13748;52.240;6.002;2023-02-11T15:02:19;11.80;99.90
25951;DHT22;13748;52.240;6.002;2023-02-11T15:04:47;11.80;99.90
25951;DHT22;13748;52.240;6.002;2023-02-11T15:07:14;11.90;99.90
25951;DHT22;13748;52.240;6.002;2023-02-11T15:09:48;12.00;99.90
25951;DHT22;13748;52.240;6.002;2023-02-11T15:12:24;12.00;99.90
25951;DHT22;13748;52.240;6.002;2023-02-11T15:14:56;12.00;99.90
25951;DHT22;13748;52.240;6.002;2023-02-11T15:17:29;12.10;99.90
25951;DHT22;13748;52.240;6.002;2023-02-11T15:19:59;12.10;99.90
25951;DHT22;13748;52.240;6.002;2023-02-11T15:22:29;12.20;99.90
25951;DHT22;13748;52.240;6.002;2023-02-11T15:27:48;12.30;99.90
25951;DHT22;13748;52.240;6.002;2023-02-11T15:32:50;12.10;99.90
25951;DHT22;13748;52.240;6.002;2023-02-11T15:35:17;12.10;99.90
25951;DHT22;13748;52.240;6.002;2023-02-11T15:37:44;12.10;99.90
25951;DHT22;13748;52.240;6.002;2023-02-11T15:40:16;12.00;99.90
25951;DHT22;13748;52.240;6.002;2023-02-11T15:43:04;12.00;99.90
25951;DHT22;13748;52.240;6.002;2023-02-11T15:45:41;12.00;99.90
25951;DHT22;13748;52.240;6.002;2023-02-11T15:51:25;11.80;99.90
25951;DHT22;13748;52.240;6.002;2023-02-11T15:53:59;11.70;99.90
25951;DHT22;13748;52.240;6.002;2023-02-11T15:56:28;11.70;99.90
25951;DHT22;13748;52.240;6.002;2023-02-11T15:58:58;11.60;99.90
25951;DHT22;13748;52.240;6.002;2023-02-11T16:01:31;11.60;99.90
25951;DHT22;13748;52.240;6.002;2023-02-11T16:04:00;11.50;99.90
25951;DHT22;13748;52.240;6.002;2023-02-11T16:06:36;11.50;99.90
25951;DHT22;13748;52.240;6.002;2023-02-11T16:09:32;11.80;99.90
25951;DHT22;13748;52.240;6.002;2023-02-11T16:12:02;11.50;99.90
25951;DHT22;13748;52.240;6.002;2023-02-11T16:14:33;11.50;99.90
25951;DHT22;13748;52.240;6.002;2023-02-11T16:17:06;11.40;99.90
25951;DHT22;13748;52.240;6.002;2023-02-11T16:19:40;11.40;99.90
25951;DHT22;13748;52.240;6.002;2023-02-11T16:22:10;11.40;99.90
25951;DHT22;13748;52.240;6.002;2023-02-11T16:24:38;11.30;99.90
25951;DHT22;13748;52.240;6.002;2023-02-11T16:27:38;11.30;99.90
25951;DHT22;13748;52.240;6.002;2023-02-11T16:30:16;11.30;99.90
25951;DHT22;13748;52.240;6.002;2023-02-11T16:32:47;11.20;99.90
25951;DHT22;13748;52.240;6.002;2023-02-11T16:35:14;11.20;99.90
25951;DHT22;13748;52.240;6.002;2023-02-11T16:37:41;11.20;99.90
25951;DHT22;13748;52.240;6.002;2023-02-11T16:40:08;11.10;99.90
25951;DHT22;13748;52.240;6.002;2023-02-11T16:42:35;11.10;99.90
25951;DHT22;13748;52.240;6.002;2023-02-11T16:45:02;11.10;99.90
25951;DHT22;13748;52.240;6.002;2023-02-11T16:47:29;11.10;99.90
25951;DHT22;13748;52.240;6.002;2023-02-11T16:49:59;11.00;99.90
25951;DHT22;13748;52.240;6.002;2023-02-11T16:52:28;11.00;99.90
25951;DHT22;13748;52.240;6.002;2023-02-11T16:54:57;11.00;99.90
25951;DHT22;13748;52.240;6.002;2023-02-11T16:57:25;10.90;99.90
25951;DHT22;13748;52.240;6.002;2023-02-11T16:59:55;10.90;99.90
25951;DHT22;13748;52.240;6.002;2023-02-11T17:02:28;10.90;99.90
25951;DHT22;13748;52.240;6.002;2023-02-11T17:04:59;10.90;99.90
25951;DHT22;13748;52.240;6.002;2023-02-11T17:07:26;10.90;99.90
25951;DHT22;13748;52.240;6.002;2023-02-11T17:09:53;10.80;99.90
25951;DHT22;13748;52.240;6.002;2023-02-11T17:12:20;10.80;99.90
25951;DHT22;13748;52.240;6.002;2023-02-11T17:14:47;10.80;99.90
25951;DHT22;13748;52.240;6.002;2023-02-11T17:17:14;10.70;99.90
25951;DHT22;13748;52.240;6.002;2023-02-11T17:19:41;10.70;99.90
25951;DHT22;13748;52.240;6.002;2023-02-11T17:22:10;10.70;99.90
25951;DHT22;13748;52.240;6.002;2023-02-11T17:24:37;10.60;99.90
25951;DHT22;13748;52.240;6.002;2023-02-11T17:27:03;10.60;99.90
25951;DHT22;13748;52.240;6.002;2023-02-11T17:29:30;10.60;99.90
25951;DHT22;13748;52.240;6.002;2023-02-11T17:31:57;10.50;99.90
25951;DHT22;13748;52.240;6.002;2023-02-11T17:34:24;10.50;99.90
25951;DHT22;13748;52.240;6.002;2023-02-11T17:36:50;10.50;99.90
25951;DHT22;13748;52.240;6.002;2023-02-11T17:39:17;10.50;99.90
25951;DHT22;13748;52.240;6.002;2023-02-11T17:41:46;10.50;99.90
25951;DHT22;13748;52.240;6.002;2023-02-11T17:44:13;10.50;99.90
25951;DHT22;13748;52.240;6.002;2023-02-11T17:46:41;10.40;99.90
25951;DHT22;13748;52.240;6.002;2023-02-11T17:49:09;10.50;99.90
25951;DHT22;13748;52.240;6.002;2023-02-11T17:51:37;10.40;99.90
25951;DHT22;13748;52.240;6.002;2023-02-11T17:54:10;10.40;99.90
25951;DHT22;13748;52.240;6.002;2023-02-11T17:56:39;10.30;99.90
25951;DHT22;13748;52.240;6.002;2023-02-11T17:59:07;10.30;99.90
25951;DHT22;13748;52.240;6.002;2023-02-11T18:01:35;10.30;99.90
25951;DHT22;13748;52.240;6.002;2023-02-11T18:04:03;10.30;99.90
25951;DHT22;13748;52.240;6.002;2023-02-11T18:06:30;10.30;99.90
25951;DHT22;13748;52.240;6.002;2023-02-11T18:08:59;10.20;99.90
25951;DHT22;13748;52.240;6.002;2023-02-11T18:11:29;10.20;99.90
25951;DHT22;13748;52.240;6.002;2023-02-11T18:13:58;10.20;99.90
25951;DHT22;13748;52.240;6.002;2023-02-11T18:16:25;10.20;99.90
25951;DHT22;13748;52.240;6.002;2023-02-11T18:18:56;10.50;99.90
25951;DHT22;13748;52.240;6.002;2023-02-11T18:21:23;10.40;99.90
25951;DHT22;13748;52.240;6.002;2023-02-11T18:23:51;10.30;99.90
25951;DHT22;13748;52.240;6.002;2023-02-11T18:26:19;10.30;99.90
25951;DHT22;13748;52.240;6.002;2023-02-11T18:28:47;10.30;99.90